createdAt,value
2023-03-15T00:00:53.867Z,2.85
2023-03-15T00:03:20.447Z,5.05
2023-03-15T00:05:49.048Z,5.63
2023-03-15T00:08:15.858Z,6.10
2023-03-15T00:10:43.176Z,7.13
2023-03-15T00:13:10.737Z,4.90
2023-03-15T00:15:45.603Z,6.72
2023-03-15T00:18:13.065Z,6.75
2023-03-15T00:20:39.516Z,6.75
2023-03-15T00:23:06.072Z,5.10
2023-03-15T00:25:33.186Z,7.03
2023-03-15T00:27:59.619Z,5.95
2023-03-15T00:30:27.384Z,7.18
2023-03-15T00:32:54.007Z,5.57
2023-03-15T00:35:21.071Z,5.80
2023-03-15T00:37:47.943Z,4.28
2023-03-15T00:40:14.599Z,3.67
2023-03-15T00:42:42.124Z,4.70
2023-03-15T00:45:08.954Z,4.78
2023-03-15T00:47:35.440Z,5.88
2023-03-15T00:50:01.920Z,8.95
2023-03-15T00:52:35.854Z,3.67
2023-03-15T00:55:04.853Z,5.85
2023-03-15T00:57:34.546Z,8.43
2023-03-15T01:00:08.738Z,3.88
2023-03-15T01:02:37.285Z,7.20
2023-03-15T01:05:08.597Z,5.65
2023-03-15T01:07:35.683Z,5.25
2023-03-15T01:10:05.433Z,5.43
2023-03-15T01:12:33.442Z,5.13
2023-03-15T01:15:01.636Z,5.20
2023-03-15T01:17:28.348Z,6.50
2023-03-15T01:19:54.876Z,5.43
2023-03-15T01:22:22.422Z,5.75
2023-03-15T01:24:48.884Z,5.47
2023-03-15T01:27:15.333Z,6.40
2023-03-15T01:29:47.669Z,4.75
2023-03-15T01:32:14.432Z,6.57
2023-03-15T01:34:41.080Z,7.18
2023-03-15T01:37:07.656Z,6.25
2023-03-15T01:39:35.117Z,6.18
2023-03-15T01:42:02.351Z,4.90
2023-03-15T01:44:50.062Z,8.05
2023-03-15T01:47:16.635Z,7.80
2023-03-15T01:49:45.363Z,5.63
2023-03-15T01:52:17.741Z,4.95
2023-03-15T01:54:59.545Z,8.27
2023-03-15T01:57:32.566Z,5.72
2023-03-15T02:00:10.614Z,5.53
2023-03-15T02:02:46.886Z,6.18
2023-03-15T02:05:19.489Z,5.57
2023-03-15T02:07:49.943Z,7.43
2023-03-15T02:10:23.216Z,6.13
2023-03-15T02:12:53.021Z,7.25
2023-03-15T02:15:19.678Z,4.85
2023-03-15T02:17:48.236Z,7.78
2023-03-15T02:20:46.087Z,7.35
2023-03-15T02:23:18.835Z,7.75
2023-03-15T02:26:13.595Z,7.18
2023-03-15T02:28:40.936Z,9.73
2023-03-15T02:31:07.494Z,8.40
2023-03-15T02:33:41.771Z,6.40
2023-03-15T02:36:35.489Z,7.47
2023-03-15T02:39:12.925Z,8.93
2023-03-15T02:41:42.470Z,9.88
2023-03-15T02:44:14.031Z,6.50
2023-03-15T02:46:41.988Z,6.55
2023-03-15T02:49:08.792Z,5.50
2023-03-15T02:51:35.340Z,5.47
2023-03-15T02:54:02.819Z,6.82
2023-03-15T02:56:32.093Z,9.90
2023-03-15T02:58:58.514Z,7.75
2023-03-15T03:01:25.134Z,4.40
2023-03-15T03:03:51.623Z,4.03
2023-03-15T03:06:18.556Z,4.90
2023-03-15T03:08:47.262Z,7.43
2023-03-15T03:11:15.572Z,6.85
2023-03-15T03:13:44.217Z,7.18
2023-03-15T03:16:11.263Z,6.70
2023-03-15T03:18:38.685Z,4.38
2023-03-15T03:21:07.337Z,7.45
2023-03-15T03:23:35.988Z,7.75
2023-03-15T03:26:04.218Z,8.38
2023-03-15T03:28:33.298Z,4.80
2023-03-15T03:30:59.823Z,5.25
2023-03-15T03:33:26.406Z,6.55
2023-03-15T03:35:54.179Z,6.38
2023-03-15T03:38:20.965Z,6.28
2023-03-15T03:40:47.540Z,7.68
2023-03-15T03:43:14.016Z,10.13
2023-03-15T03:45:40.512Z,8.23
2023-03-15T03:48:08.968Z,6.32
2023-03-15T03:50:35.524Z,7.40
2023-03-15T03:53:01.947Z,7.88
2023-03-15T03:55:28.376Z,7.03
2023-03-15T03:57:54.857Z,7.50
2023-03-15T04:00:21.647Z,10.48
2023-03-15T04:02:48.209Z,7.95
2023-03-15T04:05:14.822Z,5.82
2023-03-15T04:07:41.534Z,7.28
2023-03-15T04:10:09.129Z,8.77
2023-03-15T04:12:35.643Z,6.03
2023-03-15T04:15:02.191Z,8.15
2023-03-15T04:17:28.657Z,9.20
2023-03-15T04:19:57.177Z,8.70
2023-03-15T04:22:23.659Z,8.88
2023-03-15T04:24:50.704Z,10.10
2023-03-15T04:27:23.021Z,8.43
2023-03-15T04:29:49.482Z,9.63
2023-03-15T04:32:18.018Z,9.88
2023-03-15T04:34:45.578Z,8.35
2023-03-15T04:37:12.054Z,10.82
2023-03-15T04:39:39.141Z,9.57
2023-03-15T04:42:05.871Z,12.43
2023-03-15T04:44:42.529Z,10.32
2023-03-15T04:47:09.688Z,10.10
2023-03-15T04:49:43.977Z,10.40
2023-03-15T04:52:10.468Z,9.50
2023-03-15T04:54:39.319Z,11.45
2023-03-15T04:57:05.949Z,10.90
2023-03-15T04:59:32.497Z,9.10
2023-03-15T05:01:58.988Z,8.77
2023-03-15T05:04:25.489Z,8.95
2023-03-15T05:06:51.898Z,12.40
2023-03-15T05:09:19.232Z,10.57
2023-03-15T05:11:46.502Z,10.07
2023-03-15T05:14:13.930Z,8.85
2023-03-15T05:16:40.627Z,11.82
2023-03-15T05:19:14.294Z,10.73
2023-03-15T05:21:40.752Z,10.77
2023-03-15T05:24:07.302Z,13.30
2023-03-15T05:26:34.935Z,9.45
2023-03-15T05:29:01.364Z,8.23
2023-03-15T05:31:28.292Z,12.98
2023-03-15T05:33:54.745Z,9.38
2023-03-15T05:36:21.760Z,9.45
2023-03-15T05:38:48.353Z,10.98
2023-03-15T05:41:17.961Z,8.77
2023-03-15T05:43:44.486Z,9.07
2023-03-15T05:46:10.953Z,12.50
2023-03-15T05:48:37.440Z,10.45
2023-03-15T05:51:07.174Z,10.25
2023-03-15T05:53:34.102Z,10.43
2023-03-15T05:56:09.093Z,11.80
2023-03-15T05:58:35.680Z,11.82
2023-03-15T06:01:04.431Z,10.23
2023-03-15T06:03:31.759Z,9.30
2023-03-15T06:05:59.333Z,8.32
2023-03-15T06:08:25.744Z,8.95
2023-03-15T06:10:52.209Z,9.95
2023-03-15T06:13:18.943Z,13.52
2023-03-15T06:15:47.228Z,12.10
2023-03-15T06:18:17.434Z,9.70
2023-03-15T06:20:44.403Z,11.98
2023-03-15T06:23:11.114Z,13.43
2023-03-15T06:25:47.739Z,14.60
2023-03-15T06:28:14.288Z,12.52
2023-03-15T06:30:42.289Z,10.75
2023-03-15T06:33:08.808Z,12.70
2023-03-15T06:35:35.396Z,10.05
2023-03-15T06:38:05.038Z,10.73
2023-03-15T06:40:31.724Z,11.98
2023-03-15T06:42:58.165Z,11.35
2023-03-15T06:45:48.603Z,12.68
2023-03-15T06:48:15.300Z,12.00
2023-03-15T06:50:47.256Z,13.00
2023-03-15T06:53:14.712Z,9.48
2023-03-15T06:55:41.165Z,11.68
2023-03-15T06:58:08.006Z,10.55
2023-03-15T07:00:36.129Z,12.98
2023-03-15T07:03:02.697Z,9.65
2023-03-15T07:05:29.563Z,10.77
2023-03-15T07:07:56.194Z,10.30
2023-03-15T07:10:24.014Z,14.98
2023-03-15T07:12:50.437Z,13.55
2023-03-15T07:15:17.586Z,11.90
2023-03-15T07:17:44.213Z,10.38
2023-03-15T07:20:11.426Z,13.18
2023-03-15T07:22:38.637Z,11.23
2023-03-15T07:25:07.410Z,11.38
2023-03-15T07:27:33.953Z,17.65
2023-03-15T07:30:02.774Z,8.82
2023-03-15T07:32:30.921Z,11.50
2023-03-15T07:35:00.508Z,12.95
2023-03-15T07:37:29.258Z,14.73
2023-03-15T07:40:04.784Z,10.60
2023-03-15T07:42:31.229Z,12.40
2023-03-15T07:44:57.741Z,10.15
2023-03-15T07:47:24.157Z,10.10
2023-03-15T07:49:50.787Z,8.98
2023-03-15T07:52:17.521Z,12.73
2023-03-15T07:54:43.935Z,10.57
2023-03-15T07:57:10.697Z,14.98
2023-03-15T07:59:37.166Z,11.48
2023-03-15T08:02:03.805Z,10.95
2023-03-15T08:04:30.529Z,10.25
2023-03-15T08:06:57.066Z,11.73
2023-03-15T08:09:25.007Z,11.90
2023-03-15T08:11:51.538Z,10.13
2023-03-15T08:14:18.474Z,10.35
2023-03-15T08:16:44.953Z,11.40
2023-03-15T08:19:11.464Z,10.20
2023-03-15T08:21:38.050Z,10.50
2023-03-15T08:24:05.884Z,9.57
2023-03-15T08:26:32.334Z,9.70
2023-03-15T08:28:58.741Z,10.18
2023-03-15T08:31:25.353Z,12.52
2023-03-15T08:33:51.815Z,10.15
2023-03-15T08:36:18.310Z,13.40
2023-03-15T08:38:44.940Z,11.30
2023-03-15T08:41:11.367Z,8.73
2023-03-15T08:43:38.116Z,10.27
2023-03-15T08:46:15.577Z,10.45
2023-03-15T08:48:42.096Z,9.73
2023-03-15T08:51:09.072Z,9.07
2023-03-15T08:53:35.692Z,10.73
2023-03-15T08:56:02.131Z,12.70
2023-03-15T08:58:30.728Z,13.68
2023-03-15T09:00:57.458Z,9.88
2023-03-15T09:03:27.345Z,9.38
2023-03-15T09:05:57.893Z,10.10
2023-03-15T09:08:25.549Z,11.48
2023-03-15T09:10:56.263Z,9.60
2023-03-15T09:13:23.664Z,9.50
2023-03-15T09:15:57.014Z,11.15
2023-03-15T09:18:24.640Z,15.57
2023-03-15T09:20:51.191Z,10.32
2023-03-15T09:23:17.662Z,10.65
2023-03-15T09:25:44.139Z,10.02
2023-03-15T09:28:11.519Z,10.82
2023-03-15T09:30:39.527Z,12.00
2023-03-15T09:33:06.092Z,9.70
2023-03-15T09:35:32.596Z,9.95
2023-03-15T09:37:59.087Z,10.27
2023-03-15T09:40:30.747Z,9.48
2023-03-15T09:43:06.115Z,9.80
2023-03-15T09:45:41.576Z,7.35
2023-03-15T09:48:23.955Z,8.95
2023-03-15T09:51:01.212Z,9.38
2023-03-15T09:53:39.549Z,8.23
2023-03-15T09:56:20.199Z,13.82
2023-03-15T09:58:48.242Z,7.18
2023-03-15T10:01:17.230Z,9.30
2023-03-15T10:03:46.643Z,11.43
2023-03-15T10:06:16.828Z,9.32
2023-03-15T10:08:43.324Z,9.00
2023-03-15T10:11:31.740Z,8.82
2023-03-15T10:14:13.142Z,10.38
2023-03-15T10:16:44.413Z,8.50
2023-03-15T10:19:36.085Z,8.73
2023-03-15T10:22:27.620Z,7.07
2023-03-15T10:25:05.132Z,9.65
2023-03-15T10:27:42.425Z,10.77
2023-03-15T10:30:20.042Z,10.23
2023-03-15T10:33:14.077Z,8.38
2023-03-15T10:35:42.802Z,7.28
2023-03-15T10:38:23.467Z,11.50
2023-03-15T10:40:55.854Z,8.23
2023-03-15T10:43:23.899Z,6.00
2023-03-15T10:46:01.721Z,7.72
2023-03-15T10:48:31.197Z,11.55
2023-03-15T10:51:04.593Z,12.15
2023-03-15T10:53:31.134Z,9.07
2023-03-15T10:56:23.622Z,10.27
2023-03-15T10:59:11.010Z,7.00
2023-03-15T11:01:38.353Z,7.93
2023-03-15T11:04:27.380Z,8.75
2023-03-15T11:06:53.760Z,8.70
2023-03-15T11:09:23.534Z,8.13
2023-03-15T11:12:05.093Z,8.88
2023-03-15T11:14:39.403Z,8.43
2023-03-15T11:17:09.268Z,9.40
2023-03-15T11:19:42.452Z,7.20
2023-03-15T11:22:13.807Z,12.95
2023-03-15T11:24:40.717Z,6.95
2023-03-15T11:27:17.756Z,9.20
2023-03-15T11:29:48.712Z,8.80
2023-03-15T11:32:24.380Z,7.80
2023-03-15T11:35:07.696Z,8.57
2023-03-15T11:37:51.181Z,10.13
2023-03-15T11:40:23.538Z,8.10
2023-03-15T11:43:08.812Z,9.50
2023-03-15T11:46:00.205Z,8.23
2023-03-15T11:48:31.535Z,8.10
2023-03-15T11:50:59.452Z,8.07
2023-03-15T11:53:34.192Z,8.93
2023-03-15T11:56:21.942Z,9.23
2023-03-15T11:59:06.403Z,9.48
2023-03-15T12:01:34.741Z,7.45
2023-03-15T12:04:25.732Z,10.32
2023-03-15T12:06:54.243Z,8.80
2023-03-15T12:09:41.502Z,10.52
2023-03-15T12:12:27.202Z,7.63
2023-03-15T12:15:08.409Z,8.85
2023-03-15T12:17:37.341Z,8.95
2023-03-15T12:20:13.113Z,8.68
2023-03-15T12:22:49.643Z,11.18
2023-03-15T12:25:21.022Z,8.60
2023-03-15T12:27:50.908Z,9.40
2023-03-15T12:30:52.805Z,8.50
2023-03-15T12:33:21.333Z,8.25
2023-03-15T12:35:49.726Z,10.88
2023-03-15T12:38:23.496Z,10.05
2023-03-15T12:40:54.945Z,8.80
2023-03-15T12:43:43.286Z,9.40
2023-03-15T12:46:41.297Z,8.40
2023-03-15T12:49:29.654Z,10.63
2023-03-15T12:51:59.708Z,11.98
2023-03-15T12:54:34.796Z,9.43
2023-03-15T12:57:04.442Z,9.80
2023-03-15T12:59:41.264Z,9.63
2023-03-15T13:02:32.463Z,9.52
2023-03-15T13:05:19.836Z,8.57
2023-03-15T13:08:15.526Z,9.45
2023-03-15T13:10:51.786Z,13.27
2023-03-15T13:13:28.903Z,11.38
2023-03-15T13:16:06.406Z,7.68
2023-03-15T13:18:41.974Z,10.05
2023-03-15T13:21:31.570Z,7.07
2023-03-15T13:23:59.653Z,9.65
2023-03-15T13:26:59.317Z,9.45
2023-03-15T13:29:32.316Z,8.43
2023-03-15T13:32:14.133Z,10.90
2023-03-15T13:34:42.232Z,6.93
2023-03-15T13:37:18.052Z,8.15
2023-03-15T13:40:06.093Z,9.70
2023-03-15T13:42:32.757Z,7.88
2023-03-15T13:45:17.753Z,9.27
2023-03-15T13:47:45.873Z,7.47
2023-03-15T13:50:19.315Z,6.57
2023-03-15T13:52:47.254Z,7.72
2023-03-15T13:55:22.532Z,5.68
2023-03-15T13:58:00.076Z,5.97
2023-03-15T14:00:33.848Z,5.93
2023-03-15T14:03:03.471Z,6.53
2023-03-15T14:05:33.555Z,4.90
2023-03-15T14:08:04.037Z,4.70
2023-03-15T14:10:34.309Z,5.97
2023-03-15T14:13:46.239Z,5.00
2023-03-15T14:16:16.484Z,8.45
2023-03-15T14:18:45.221Z,5.25
2023-03-15T14:21:31.109Z,7.07
2023-03-15T14:24:06.370Z,6.63
2023-03-15T14:26:41.011Z,6.63
2023-03-15T14:29:32.726Z,5.43
2023-03-15T14:32:02.492Z,8.57
2023-03-15T14:34:46.557Z,8.95
2023-03-15T14:37:37.890Z,9.88
2023-03-15T14:40:23.037Z,5.97
2023-03-15T14:42:50.895Z,8.88
2023-03-15T14:45:19.298Z,8.38
2023-03-15T14:47:57.264Z,6.10
2023-03-15T14:50:35.454Z,36.65
2023-03-15T14:53:02.951Z,9.55
2023-03-15T14:55:34.851Z,6.65
2023-03-15T15:00:30.217Z,7.72
2023-03-15T15:02:58.811Z,6.20
2023-03-15T15:05:43.669Z,7.63
2023-03-15T15:08:15.566Z,6.68
2023-03-15T15:13:18.554Z,7.95
2023-03-15T15:15:55.076Z,5.60
2023-03-15T15:18:28.594Z,5.55
2023-03-15T15:20:57.366Z,6.00
2023-03-15T15:23:47.455Z,5.53
2023-03-15T15:26:23.629Z,5.90
2023-03-15T15:28:50.153Z,6.03
2023-03-15T15:31:22.795Z,5.70
2023-03-15T15:33:50.704Z,5.75
2023-03-15T15:36:31.202Z,5.38
2023-03-15T15:39:11.197Z,5.80
2023-03-15T15:41:37.622Z,6.60
2023-03-15T15:44:04.163Z,6.25
2023-03-15T15:46:30.761Z,5.07
2023-03-15T15:48:58.819Z,6.15
2023-03-15T15:51:27.847Z,6.82
2023-03-15T15:53:58.285Z,6.80
2023-03-15T15:56:45.770Z,7.88
2023-03-15T15:59:15.129Z,8.52
2023-03-15T16:01:58.974Z,6.20
2023-03-15T16:04:26.576Z,8.15
2023-03-15T16:06:59.122Z,8.48
2023-03-15T16:09:28.257Z,5.97
2023-03-15T16:11:56.979Z,9.30
2023-03-15T16:14:23.449Z,8.95
2023-03-15T16:16:50.069Z,8.90
2023-03-15T16:19:17.084Z,5.32
2023-03-15T16:21:47.766Z,8.70
2023-03-15T16:24:21.691Z,6.53
2023-03-15T16:26:49.676Z,7.03
2023-03-15T16:29:35.292Z,8.70
2023-03-15T16:32:15.932Z,6.78
2023-03-15T16:34:47.107Z,5.60
2023-03-15T16:37:16.150Z,7.00
2023-03-15T16:39:55.635Z,5.65
2023-03-15T16:42:24.366Z,6.63
2023-03-15T16:44:53.793Z,6.90
2023-03-15T16:47:20.624Z,7.93
2023-03-15T16:49:47.127Z,6.35
2023-03-15T16:52:16.038Z,5.20
2023-03-15T16:54:43.988Z,5.43
2023-03-15T16:57:17.086Z,6.90
2023-03-15T16:59:43.632Z,5.80
2023-03-15T17:02:17.246Z,6.10
2023-03-15T17:04:44.037Z,5.40
2023-03-15T17:07:11.538Z,4.07
2023-03-15T17:09:37.992Z,4.97
2023-03-15T17:12:04.650Z,7.88
2023-03-15T17:14:34.969Z,7.47
2023-03-15T17:17:01.413Z,6.18
2023-03-15T17:19:28.848Z,5.55
2023-03-15T17:21:56.903Z,8.30
2023-03-15T17:24:23.507Z,6.50
2023-03-15T17:26:49.956Z,6.93
2023-03-15T17:29:16.779Z,6.90
2023-03-15T17:31:44.559Z,6.65
2023-03-15T17:34:11.118Z,5.88
2023-03-15T17:36:37.763Z,5.85
2023-03-15T17:39:06.765Z,6.22
2023-03-15T17:41:45.224Z,5.63
2023-03-15T17:44:11.861Z,7.75
2023-03-15T17:46:38.377Z,8.30
2023-03-15T17:49:10.047Z,6.97
2023-03-15T17:51:37.688Z,5.13
2023-03-15T17:54:18.278Z,5.18
2023-03-15T17:56:44.828Z,9.27
2023-03-15T17:59:17.765Z,6.00
2023-03-15T18:01:48.809Z,6.43
2023-03-15T18:04:28.217Z,7.40
2023-03-15T18:06:55.324Z,6.72
2023-03-15T18:09:24.120Z,6.57
2023-03-15T18:11:50.936Z,4.03
2023-03-15T18:14:18.870Z,4.57
2023-03-15T18:16:45.536Z,6.65
2023-03-15T18:19:12.062Z,6.72
2023-03-15T18:21:39.677Z,5.63
2023-03-15T18:24:06.447Z,8.85
2023-03-15T18:26:33.375Z,7.97
2023-03-15T18:29:00.977Z,7.78
2023-03-15T18:31:38.335Z,8.60
2023-03-15T18:34:06.657Z,7.88
2023-03-15T18:36:33.252Z,11.50
2023-03-15T18:39:01.793Z,10.52
2023-03-15T18:41:28.279Z,8.48
2023-03-15T18:44:00.934Z,8.65
2023-03-15T18:46:27.652Z,9.18
2023-03-15T18:48:54.221Z,9.07
2023-03-15T18:51:22.976Z,7.43
2023-03-15T18:53:49.672Z,7.68
2023-03-15T18:56:19.412Z,5.95
2023-03-15T18:59:03.594Z,4.38
2023-03-15T19:01:30.157Z,6.05
2023-03-15T19:03:56.814Z,18.42
2023-03-15T19:06:26.188Z,15.38
2023-03-15T19:08:54.343Z,22.35
2023-03-15T19:11:21.929Z,10.80
2023-03-15T19:13:51.000Z,8.25
2023-03-15T19:16:23.187Z,9.73
2023-03-15T19:18:55.312Z,8.75
2023-03-15T19:21:21.867Z,8.48
2023-03-15T19:23:48.337Z,8.32
2023-03-15T19:26:15.919Z,7.40
2023-03-15T19:28:52.544Z,8.07
2023-03-15T19:31:19.074Z,7.50
2023-03-15T19:33:45.564Z,8.65
2023-03-15T19:36:14.319Z,9.45
2023-03-15T19:38:51.902Z,15.63
2023-03-15T19:41:44.475Z,13.57
2023-03-15T19:44:11.398Z,15.20
2023-03-15T19:46:37.917Z,12.55
2023-03-15T19:49:04.413Z,12.65
2023-03-15T19:51:41.466Z,11.60
2023-03-15T19:54:08.084Z,11.27
2023-03-15T19:56:41.896Z,9.52
2023-03-15T19:59:08.664Z,11.38
2023-03-15T20:01:43.127Z,10.85
2023-03-15T20:04:09.704Z,11.95
2023-03-15T20:06:36.401Z,12.98
2023-03-15T20:09:11.254Z,11.75
2023-03-15T20:11:37.773Z,12.40
2023-03-15T20:14:04.668Z,10.32
2023-03-15T20:16:31.283Z,9.35
2023-03-15T20:19:06.667Z,10.25
2023-03-15T20:21:33.759Z,9.38
2023-03-15T20:24:00.586Z,9.23
2023-03-15T20:26:31.191Z,11.48
2023-03-15T20:28:57.620Z,9.75
2023-03-15T20:31:26.142Z,21.83
2023-03-15T20:33:52.850Z,18.95
2023-03-15T20:36:19.674Z,24.95
2023-03-15T20:38:48.219Z,16.73
2023-03-15T20:41:14.893Z,12.10
2023-03-15T20:43:41.922Z,12.13
2023-03-15T20:46:22.462Z,11.77
2023-03-15T20:48:50.120Z,13.63
2023-03-15T20:51:16.563Z,12.50
2023-03-15T20:53:43.085Z,16.50
2023-03-15T20:56:11.576Z,12.23
2023-03-15T20:58:38.182Z,11.80
2023-03-15T21:01:16.689Z,11.48
2023-03-15T21:03:45.216Z,10.35
2023-03-15T21:06:12.207Z,12.20
2023-03-15T21:08:39.159Z,9.98
2023-03-15T21:11:06.729Z,8.38
2023-03-15T21:13:37.470Z,8.93
2023-03-15T21:16:05.221Z,9.52
2023-03-15T21:18:35.954Z,9.40
2023-03-15T21:21:06.388Z,9.02
2023-03-15T21:23:33.538Z,11.15
2023-03-15T21:26:05.267Z,11.13
2023-03-15T21:28:32.234Z,10.57
2023-03-15T21:30:59.457Z,11.07
2023-03-15T21:33:27.975Z,9.65
2023-03-15T21:35:55.776Z,10.45
2023-03-15T21:38:22.419Z,9.35
2023-03-15T21:40:52.553Z,9.43
2023-03-15T21:43:21.013Z,9.75
2023-03-15T21:46:09.317Z,10.00
2023-03-15T21:48:38.045Z,13.68
2023-03-15T21:51:11.181Z,13.30
2023-03-15T21:53:38.685Z,11.07
2023-03-15T21:56:05.428Z,11.15
2023-03-15T21:58:32.728Z,10.43
2023-03-15T22:01:06.299Z,9.73
2023-03-15T22:03:35.330Z,9.25
2023-03-15T22:06:02.591Z,13.80
2023-03-15T22:08:29.162Z,11.48
2023-03-15T22:10:57.444Z,11.18
2023-03-15T22:13:24.840Z,11.23
2023-03-15T22:15:52.359Z,11.32
2023-03-15T22:18:19.493Z,10.57
2023-03-15T22:21:00.868Z,9.40
2023-03-15T22:23:29.500Z,11.48
2023-03-15T22:25:57.199Z,9.80
2023-03-15T22:28:25.201Z,9.70
2023-03-15T22:30:53.874Z,9.52
2023-03-15T22:33:24.623Z,9.95
2023-03-15T22:35:56.206Z,11.07
2023-03-15T22:38:24.393Z,11.23
2023-03-15T22:41:08.600Z,12.05
2023-03-15T22:43:43.299Z,10.80
2023-03-15T22:46:15.768Z,14.45
2023-03-15T22:48:42.639Z,14.10
2023-03-15T22:51:11.321Z,15.23
2023-03-15T22:53:37.848Z,12.50
2023-03-15T22:56:04.970Z,12.10
2023-03-15T22:58:31.753Z,11.90
2023-03-15T23:00:58.217Z,12.93
2023-03-15T23:03:27.696Z,12.38
2023-03-15T23:05:55.524Z,11.07
2023-03-15T23:08:27.287Z,14.23
2023-03-15T23:10:56.971Z,11.60
2023-03-15T23:13:23.443Z,12.65
2023-03-15T23:15:54.345Z,22.33
2023-03-15T23:18:22.046Z,13.83
2023-03-15T23:20:49.647Z,13.15
2023-03-15T23:23:16.171Z,52.72
2023-03-15T23:25:43.225Z,107.22
2023-03-15T23:28:09.699Z,38.70
2023-03-15T23:30:40.002Z,105.72
2023-03-15T23:33:08.942Z,67.25
2023-03-15T23:35:35.825Z,123.47
2023-03-15T23:38:02.446Z,94.82
2023-03-15T23:40:30.134Z,44.30
2023-03-15T23:42:59.327Z,31.30
2023-03-15T23:45:29.426Z,13.25
2023-03-15T23:47:56.783Z,24.92
2023-03-15T23:50:27.429Z,28.52
2023-03-15T23:52:56.111Z,12.83
2023-03-15T23:55:24.061Z,10.77
2023-03-15T23:57:50.862Z,12.68
